createdAt,value
2018-10-15T00:00:06.309Z,15.29
2018-10-15T00:01:59.302Z,15.28
2018-10-15T00:02:59.359Z,15.18
2018-10-15T00:04:52.354Z,15.11
2018-10-15T00:05:52.414Z,15.11
2018-10-15T00:07:45.411Z,15.29
2018-10-15T00:08:45.465Z,15.24
2018-10-15T00:10:38.454Z,15.11
2018-10-15T00:11:38.515Z,15.21
2018-10-15T00:13:31.511Z,15.19
2018-10-15T00:14:31.563Z,15.15
2018-10-15T00:16:24.569Z,15.14
2018-10-15T00:17:24.619Z,15.06
2018-10-15T00:19:17.604Z,15.10
2018-10-15T00:20:17.669Z,15.04
2018-10-15T00:22:10.662Z,15.03
2018-10-15T00:23:10.720Z,15.00
2018-10-15T00:25:03.706Z,15.03
2018-10-15T00:26:03.765Z,14.84
2018-10-15T00:27:56.766Z,14.91
2018-10-15T00:28:56.822Z,14.86
2018-10-15T00:30:49.809Z,14.92
2018-10-15T00:31:49.870Z,14.81
2018-10-15T00:33:42.865Z,14.85
2018-10-15T00:34:42.919Z,14.77
2018-10-15T00:36:35.910Z,14.62
2018-10-15T00:37:35.973Z,14.73
2018-10-15T00:39:28.967Z,14.72
2018-10-15T00:40:29.024Z,14.73
2018-10-15T00:42:22.027Z,14.63
2018-10-15T00:43:22.082Z,14.73
2018-10-15T00:45:15.073Z,14.62
2018-10-15T00:46:15.136Z,14.62
2018-10-15T00:48:08.128Z,14.68
2018-10-15T00:49:08.181Z,14.62
2018-10-15T00:51:01.168Z,14.58
2018-10-15T00:52:01.231Z,14.48
2018-10-15T00:53:54.226Z,14.58
2018-10-15T00:54:54.283Z,14.59
2018-10-15T00:56:47.276Z,14.54
2018-10-15T00:57:47.337Z,14.58
2018-10-15T00:59:40.331Z,14.44
2018-10-15T01:00:40.388Z,14.51
2018-10-15T01:02:33.396Z,14.40
2018-10-15T01:03:33.441Z,14.37
2018-10-15T01:05:26.423Z,14.29
2018-10-15T01:06:26.483Z,14.32
2018-10-15T01:08:19.476Z,14.33
2018-10-15T01:09:19.531Z,14.33
2018-10-15T01:11:12.520Z,14.36
2018-10-15T01:12:12.579Z,14.30
2018-10-15T01:14:05.575Z,14.26
2018-10-15T01:15:05.632Z,14.26
2018-10-15T01:16:58.623Z,14.33
2018-10-15T01:17:58.680Z,14.32
2018-10-15T01:19:52.192Z,14.44
2018-10-15T01:20:52.240Z,14.40
2018-10-15T01:22:45.229Z,14.30
2018-10-15T01:23:45.291Z,14.45
2018-10-15T01:25:38.285Z,14.47
2018-10-15T01:26:38.341Z,14.33
2018-10-15T01:28:31.339Z,14.43
2018-10-15T01:29:31.388Z,14.45
2018-10-15T01:31:24.374Z,14.37
2018-10-15T01:32:24.432Z,14.35
2018-10-15T01:34:17.433Z,14.35
2018-10-15T01:35:17.486Z,14.40
2018-10-15T01:37:10.473Z,14.32
2018-10-15T01:38:10.534Z,14.36
2018-10-15T01:40:03.530Z,14.29
2018-10-15T01:41:03.616Z,14.23
2018-10-15T01:42:56.573Z,14.15
2018-10-15T01:43:56.632Z,14.04
2018-10-15T01:45:49.627Z,14.04
2018-10-15T01:46:49.678Z,14.04
2018-10-15T01:48:42.668Z,14.00
2018-10-15T01:49:42.733Z,13.97
2018-10-15T01:51:35.725Z,13.96
2018-10-15T01:52:35.778Z,13.90
2018-10-15T01:54:28.774Z,13.92
2018-10-15T01:55:28.821Z,13.92
2018-10-15T01:57:21.824Z,13.92
2018-10-15T01:58:21.878Z,14.00
2018-10-15T02:00:14.870Z,13.97
2018-10-15T02:01:14.922Z,13.87
2018-10-15T02:03:07.914Z,13.87
2018-10-15T02:04:07.973Z,13.78
2018-10-15T02:06:00.969Z,13.87
2018-10-15T02:07:01.023Z,13.86
2018-10-15T02:08:54.011Z,13.85
2018-10-15T02:09:54.070Z,13.86
2018-10-15T02:11:47.066Z,13.72
2018-10-15T02:12:47.116Z,13.67
2018-10-15T02:14:40.110Z,13.95
2018-10-15T02:15:40.166Z,13.97
2018-10-15T02:17:33.164Z,13.89
2018-10-15T02:18:33.210Z,13.92
2018-10-15T02:20:26.717Z,13.86
2018-10-15T02:21:26.769Z,13.92
2018-10-15T02:23:19.762Z,13.87
2018-10-15T02:24:19.815Z,13.90
2018-10-15T02:26:12.815Z,13.72
2018-10-15T02:27:12.871Z,13.83
2018-10-15T02:29:05.873Z,13.72
2018-10-15T02:30:05.924Z,13.70
2018-10-15T02:31:58.921Z,13.70
2018-10-15T02:32:58.971Z,13.63
2018-10-15T02:34:51.956Z,13.72
2018-10-15T02:35:52.061Z,13.81
2018-10-15T02:37:45.012Z,13.78
2018-10-15T02:38:45.062Z,13.78
2018-10-15T02:40:38.060Z,13.74
2018-10-15T02:41:38.108Z,13.68
2018-10-15T02:43:31.103Z,13.77
2018-10-15T02:44:31.172Z,13.65
2018-10-15T02:46:24.155Z,13.65
2018-10-15T02:47:24.211Z,13.62
2018-10-15T02:49:17.192Z,13.53
2018-10-15T02:50:17.258Z,13.57
2018-10-15T02:52:10.260Z,13.56
2018-10-15T02:53:10.305Z,13.62
2018-10-15T02:55:03.307Z,13.54
2018-10-15T02:56:03.359Z,13.56
2018-10-15T02:57:56.354Z,13.50
2018-10-15T02:58:56.412Z,13.50
2018-10-15T03:00:49.402Z,13.46
2018-10-15T03:01:49.461Z,13.41
2018-10-15T03:03:42.456Z,13.49
2018-10-15T03:04:42.506Z,13.39
2018-10-15T03:06:35.502Z,13.50
2018-10-15T03:07:35.555Z,13.50
2018-10-15T03:09:28.542Z,13.49
2018-10-15T03:10:28.600Z,13.50
2018-10-15T03:12:21.604Z,13.46
2018-10-15T03:13:21.648Z,13.42
2018-10-15T03:15:14.638Z,13.53
2018-10-15T03:16:14.697Z,13.41
2018-10-15T03:18:07.698Z,13.46
2018-10-15T03:19:07.751Z,13.46
2018-10-15T03:21:00.739Z,13.28
2018-10-15T03:22:00.798Z,13.28
2018-10-15T03:23:53.792Z,13.31
2018-10-15T03:24:53.843Z,13.30
2018-10-15T03:26:46.831Z,13.25
2018-10-15T03:27:46.890Z,13.22
2018-10-15T03:29:39.882Z,13.25
2018-10-15T03:30:39.940Z,13.23
2018-10-15T03:32:32.927Z,13.28
2018-10-15T03:33:32.980Z,13.38
2018-10-15T03:35:25.964Z,13.31
2018-10-15T03:36:26.338Z,13.31
2018-10-15T03:38:19.021Z,13.30
2018-10-15T03:39:19.071Z,13.31
2018-10-15T03:41:12.055Z,13.28
2018-10-15T03:42:12.114Z,13.22
2018-10-15T03:44:05.119Z,13.15
2018-10-15T03:45:05.172Z,13.19
2018-10-15T03:46:58.167Z,13.05
2018-10-15T03:47:58.226Z,13.19
2018-10-15T03:49:51.222Z,13.12
2018-10-15T03:50:51.277Z,13.13
2018-10-15T03:52:44.270Z,13.18
2018-10-15T03:53:44.328Z,13.08
2018-10-15T03:55:37.306Z,13.15
2018-10-15T03:56:37.367Z,13.08
2018-10-15T03:58:30.376Z,13.12
2018-10-15T03:59:30.413Z,13.00
2018-10-15T04:01:23.402Z,12.98
2018-10-15T04:02:23.515Z,12.97
2018-10-15T04:04:16.452Z,12.95
2018-10-15T04:05:16.505Z,12.91
2018-10-15T04:07:09.497Z,12.98
2018-10-15T04:08:09.556Z,12.97
2018-10-15T04:10:02.551Z,12.98
2018-10-15T04:11:02.600Z,12.97
2018-10-15T04:12:55.585Z,12.93
2018-10-15T04:13:55.646Z,12.94
2018-10-15T04:15:48.641Z,12.97
2018-10-15T04:16:48.690Z,13.03
2018-10-15T04:18:41.686Z,12.97
2018-10-15T04:19:41.735Z,13.00
2018-10-15T04:21:34.721Z,13.00
2018-10-15T04:22:34.784Z,13.01
2018-10-15T04:24:27.769Z,13.00
2018-10-15T04:25:27.824Z,13.04
2018-10-15T04:27:20.833Z,13.04
2018-10-15T04:28:21.059Z,12.98
2018-10-15T04:30:13.863Z,12.97
2018-10-15T04:31:13.914Z,12.97
2018-10-15T04:33:06.897Z,12.95
2018-10-15T04:34:06.959Z,13.00
2018-10-15T04:35:59.953Z,12.94
2018-10-15T04:37:00.002Z,12.95
2018-10-15T04:38:52.990Z,12.87
2018-10-15T04:39:53.051Z,12.85
2018-10-15T04:41:46.052Z,12.94
2018-10-15T04:42:46.103Z,12.95
2018-10-15T04:44:39.097Z,12.91
2018-10-15T04:45:39.149Z,12.86
2018-10-15T04:47:32.130Z,12.87
2018-10-15T04:48:32.190Z,12.85
2018-10-15T04:50:25.192Z,12.79
2018-10-15T04:51:25.249Z,12.87
2018-10-15T04:53:18.233Z,12.75
2018-10-15T04:54:18.294Z,12.79
2018-10-15T04:56:11.295Z,12.80
2018-10-15T04:57:11.345Z,12.80
2018-10-15T04:59:04.334Z,12.82
2018-10-15T05:00:04.403Z,12.72
2018-10-15T05:01:57.389Z,12.60
2018-10-15T05:02:57.442Z,12.67
2018-10-15T05:04:50.436Z,12.64
2018-10-15T05:05:50.488Z,12.64
2018-10-15T05:07:43.478Z,12.68
2018-10-15T05:08:43.538Z,12.64
2018-10-15T05:10:36.536Z,12.73
2018-10-15T05:11:36.591Z,12.62
2018-10-15T05:13:29.571Z,12.68
2018-10-15T05:14:29.632Z,12.72
2018-10-15T05:16:22.625Z,12.70
2018-10-15T05:17:22.675Z,12.75
2018-10-15T05:19:15.669Z,12.64
2018-10-15T05:20:15.723Z,12.67
2018-10-15T05:22:08.718Z,12.50
2018-10-15T05:23:08.767Z,12.47
2018-10-15T05:25:01.763Z,12.68
2018-10-15T05:26:01.815Z,12.64
2018-10-15T05:27:54.801Z,12.57
2018-10-15T05:28:54.865Z,12.61
2018-10-15T05:30:47.929Z,12.50
2018-10-15T05:31:47.913Z,12.67
2018-10-15T05:33:40.905Z,12.47
2018-10-15T05:34:40.960Z,12.64
2018-10-15T05:36:33.985Z,12.53
2018-10-15T05:37:34.010Z,12.54
2018-10-15T05:39:26.995Z,12.57
2018-10-15T05:40:27.056Z,12.47
2018-10-15T05:42:20.152Z,12.55
2018-10-15T05:43:20.101Z,12.49
2018-10-15T05:45:13.085Z,12.42
2018-10-15T05:46:13.143Z,12.40
2018-10-15T05:48:06.139Z,12.39
2018-10-15T05:49:06.252Z,12.42
2018-10-15T05:50:59.180Z,12.42
2018-10-15T05:51:59.245Z,12.42
2018-10-15T05:53:52.245Z,12.39
2018-10-15T05:54:52.275Z,12.39
2018-10-15T05:56:45.273Z,12.36
2018-10-15T05:57:45.325Z,12.42
2018-10-15T05:59:38.312Z,12.39
2018-10-15T06:00:38.382Z,12.29
2018-10-15T06:02:31.364Z,12.35
2018-10-15T06:03:31.415Z,12.39
2018-10-15T06:05:25.908Z,12.32
2018-10-15T06:06:25.969Z,12.32
2018-10-15T06:08:18.968Z,12.36
2018-10-15T06:09:19.016Z,12.42
2018-10-15T06:11:12.004Z,12.40
2018-10-15T06:12:12.152Z,12.50
2018-10-15T06:14:05.051Z,12.50
2018-10-15T06:15:05.106Z,12.70
2018-10-15T06:16:58.100Z,12.76
2018-10-15T06:17:58.158Z,12.85
2018-10-15T06:19:51.140Z,12.82
2018-10-15T06:20:51.204Z,12.91
2018-10-15T06:22:44.257Z,12.97
2018-10-15T06:23:44.245Z,12.97
2018-10-15T06:25:37.228Z,13.00
2018-10-15T06:26:37.288Z,12.95
2018-10-15T06:28:30.282Z,13.15
2018-10-15T06:29:30.333Z,13.15
2018-10-15T06:31:23.316Z,13.11
2018-10-15T06:32:23.379Z,13.01
2018-10-15T06:34:16.369Z,13.05
2018-10-15T06:35:16.421Z,12.91
2018-10-15T06:37:09.432Z,12.94
2018-10-15T06:38:09.520Z,12.91
2018-10-15T06:40:02.453Z,13.00
2018-10-15T06:41:02.568Z,12.94
2018-10-15T06:42:55.550Z,12.95
2018-10-15T06:43:55.623Z,12.85
2018-10-15T06:45:48.543Z,12.82
2018-10-15T06:46:48.604Z,12.83
2018-10-15T06:48:41.619Z,12.94
2018-10-15T06:49:41.652Z,12.90
2018-10-15T06:51:34.637Z,12.94
2018-10-15T06:52:34.698Z,12.97
2018-10-15T06:54:27.691Z,12.95
2018-10-15T06:55:27.741Z,12.94
2018-10-15T06:57:20.789Z,12.97
2018-10-15T06:58:20.786Z,13.00
2018-10-15T07:00:13.841Z,12.97
2018-10-15T07:01:13.833Z,12.95
2018-10-15T07:03:06.878Z,13.00
2018-10-15T07:04:06.893Z,13.09
2018-10-15T07:06:01.409Z,13.09
2018-10-15T07:07:01.459Z,13.12
2018-10-15T07:08:54.480Z,13.19
2018-10-15T07:09:54.491Z,13.16
2018-10-15T07:11:47.474Z,13.31
2018-10-15T07:12:47.537Z,13.35
2018-10-15T07:14:40.536Z,13.39
2018-10-15T07:15:40.582Z,13.52
2018-10-15T07:17:33.572Z,13.52
2018-10-15T07:18:33.632Z,13.70
2018-10-15T07:20:26.643Z,14.47
2018-10-15T07:21:26.682Z,15.65
2018-10-15T07:23:19.677Z,17.60
2018-10-15T07:24:19.844Z,18.25
2018-10-15T07:26:12.723Z,19.56
2018-10-15T07:27:12.772Z,20.19
2018-10-15T07:29:05.773Z,21.03
2018-10-15T07:30:05.859Z,21.36
2018-10-15T07:31:58.816Z,21.21
2018-10-15T07:32:58.871Z,20.74
2018-10-15T07:34:51.869Z,19.70
2018-10-15T07:35:51.924Z,19.62
2018-10-15T07:37:44.911Z,19.82
2018-10-15T07:38:44.978Z,20.25
2018-10-15T07:40:37.975Z,21.05
2018-10-15T07:41:38.030Z,21.54
2018-10-15T07:43:31.021Z,20.97
2018-10-15T07:44:31.081Z,20.36
2018-10-15T07:46:24.172Z,19.26
2018-10-15T07:47:24.137Z,18.78
2018-10-15T07:49:17.147Z,18.01
2018-10-15T07:50:17.257Z,17.89
2018-10-15T07:52:10.255Z,18.13
2018-10-15T07:53:10.303Z,18.10
2018-10-15T07:55:03.249Z,17.64
2018-10-15T07:56:03.306Z,17.60
2018-10-15T07:57:56.377Z,17.38
2018-10-15T07:58:56.463Z,17.22
2018-10-15T08:00:49.464Z,16.86
2018-10-15T08:01:49.492Z,16.83
2018-10-15T08:03:42.486Z,17.92
2018-10-15T08:04:42.550Z,17.79
2018-10-15T08:06:35.547Z,17.44
2018-10-15T08:07:35.600Z,17.36
2018-10-15T08:09:28.598Z,16.94
2018-10-15T08:10:28.709Z,16.86
2018-10-15T08:12:21.641Z,16.84
2018-10-15T08:13:21.703Z,17.19
2018-10-15T08:15:14.778Z,19.71
2018-10-15T08:16:14.768Z,20.88
2018-10-15T08:18:07.742Z,22.38
2018-10-15T08:19:07.804Z,23.03
2018-10-15T08:21:00.801Z,24.11
2018-10-15T08:22:00.857Z,24.66
2018-10-15T08:23:53.871Z,25.32
2018-10-15T08:24:53.920Z,25.50
2018-10-15T08:26:46.918Z,25.70
2018-10-15T08:27:46.978Z,25.72
2018-10-15T08:29:39.998Z,26.22
2018-10-15T08:30:40.030Z,26.31
2018-10-15T08:32:33.039Z,25.85
2018-10-15T08:33:33.098Z,25.80
2018-10-15T08:35:26.145Z,25.69
2018-10-15T08:36:26.163Z,25.36
2018-10-15T08:38:19.154Z,24.76
2018-10-15T08:39:19.229Z,25.08
2018-10-15T08:41:12.280Z,25.38
2018-10-15T08:42:12.332Z,25.63
2018-10-15T08:44:05.269Z,25.87
2018-10-15T08:45:05.329Z,25.69
2018-10-15T08:46:58.336Z,25.58
2018-10-15T08:47:58.460Z,25.18
2018-10-15T08:49:51.395Z,25.10
2018-10-15T08:50:51.494Z,25.22
2018-10-15T08:52:44.588Z,25.41
2018-10-15T08:53:44.518Z,25.54
2018-10-15T08:55:37.529Z,25.26
2018-10-15T08:56:37.583Z,25.10
2018-10-15T08:58:30.586Z,24.93
2018-10-15T08:59:30.652Z,25.03
2018-10-15T09:01:23.652Z,24.36
2018-10-15T09:02:23.708Z,24.02
2018-10-15T09:04:16.714Z,23.74
2018-10-15T09:05:16.780Z,23.39
2018-10-15T09:07:09.854Z,22.78
2018-10-15T09:08:09.903Z,22.53
2018-10-15T09:10:02.831Z,22.35
2018-10-15T09:11:02.945Z,22.33
2018-10-15T09:12:56.013Z,22.38
2018-10-15T09:13:55.954Z,22.36
2018-10-15T09:15:49.032Z,22.44
2018-10-15T09:16:49.012Z,22.53
2018-10-15T09:18:42.022Z,22.53
2018-10-15T09:19:42.074Z,22.68
2018-10-15T09:21:35.072Z,22.80
2018-10-15T09:22:35.127Z,22.87
2018-10-15T09:24:28.125Z,22.90
2018-10-15T09:25:28.184Z,22.98
2018-10-15T09:27:21.357Z,23.05
2018-10-15T09:28:21.243Z,23.00
2018-10-15T09:30:14.234Z,23.00
2018-10-15T09:31:14.356Z,23.10
2018-10-15T09:33:07.369Z,23.18
2018-10-15T09:34:07.367Z,23.10
2018-10-15T09:36:00.369Z,23.23
2018-10-15T09:37:00.475Z,23.25
2018-10-15T09:38:53.488Z,23.23
2018-10-15T09:39:53.504Z,23.24
2018-10-15T09:41:46.486Z,23.36
2018-10-15T09:42:46.613Z,23.44
2018-10-15T09:44:39.537Z,23.62
2018-10-15T09:45:39.663Z,23.62
2018-10-15T09:47:32.605Z,23.69
2018-10-15T09:48:32.660Z,23.65
2018-10-15T09:50:25.707Z,23.63
2018-10-15T09:51:25.716Z,23.65
2018-10-15T09:53:18.738Z,23.73
2018-10-15T09:54:18.772Z,23.77
2018-10-15T09:56:11.766Z,23.78
2018-10-15T09:57:11.832Z,23.87
2018-10-15T09:59:04.923Z,23.69
2018-10-15T10:00:04.891Z,23.84
2018-10-15T10:01:57.919Z,23.84
2018-10-15T10:02:58.003Z,23.87
2018-10-15T10:04:50.960Z,24.02
2018-10-15T10:05:51.003Z,24.03
2018-10-15T10:07:44.069Z,24.11
2018-10-15T10:08:44.115Z,24.05
2018-10-15T10:10:37.057Z,24.01
2018-10-15T10:11:37.120Z,24.08
2018-10-15T10:13:30.144Z,24.16
2018-10-15T10:14:30.256Z,24.13
2018-10-15T10:16:23.173Z,24.21
2018-10-15T10:17:23.349Z,24.32
2018-10-15T10:19:16.246Z,24.47
2018-10-15T10:20:16.305Z,24.45
2018-10-15T10:22:09.338Z,24.35
2018-10-15T10:23:09.447Z,24.54
2018-10-15T10:25:02.450Z,24.50
2018-10-15T10:26:02.529Z,24.57
2018-10-15T10:27:55.433Z,24.61
2018-10-15T10:28:55.512Z,24.63
2018-10-15T10:30:48.541Z,24.63
2018-10-15T10:31:48.551Z,24.61
2018-10-15T10:33:41.619Z,24.74
2018-10-15T10:34:41.612Z,24.80
2018-10-15T10:36:34.602Z,24.76
2018-10-15T10:37:34.667Z,24.85
2018-10-15T10:39:27.698Z,24.86
2018-10-15T10:40:27.830Z,24.88
2018-10-15T10:42:20.750Z,24.80
2018-10-15T10:43:20.814Z,24.92
2018-10-15T10:45:13.829Z,24.95
2018-10-15T10:46:13.891Z,24.92
2018-10-15T10:48:06.893Z,25.04
2018-10-15T10:49:06.952Z,24.98
2018-10-15T10:50:59.946Z,25.08
2018-10-15T10:52:01.971Z,25.10
2018-10-15T10:53:53.083Z,25.23
2018-10-15T10:54:53.065Z,25.23
2018-10-15T10:56:46.085Z,25.21
2018-10-15T10:57:46.205Z,25.21
2018-10-15T10:59:39.236Z,25.22
2018-10-15T11:00:39.218Z,25.32
2018-10-15T11:02:32.302Z,25.31
2018-10-15T11:03:32.279Z,25.26
2018-10-15T11:05:25.846Z,25.28
2018-10-15T11:06:25.853Z,25.32
2018-10-15T11:08:18.866Z,25.53
2018-10-15T11:09:18.918Z,25.53
2018-10-15T11:11:11.925Z,25.53
2018-10-15T11:12:11.983Z,25.58
2018-10-15T11:14:04.986Z,25.44
2018-10-15T11:15:05.043Z,25.54
2018-10-15T11:16:58.034Z,25.38
2018-10-15T11:17:58.100Z,25.23
2018-10-15T11:19:51.102Z,25.07
2018-10-15T11:20:51.186Z,24.93
2018-10-15T11:22:44.155Z,24.93
2018-10-15T11:23:44.219Z,24.92
2018-10-15T11:25:37.226Z,24.95
2018-10-15T11:26:37.280Z,24.84
2018-10-15T11:28:30.283Z,24.73
2018-10-15T11:29:30.370Z,24.74
2018-10-15T11:31:23.348Z,24.77
2018-10-15T11:32:23.407Z,24.86
2018-10-15T11:34:16.459Z,25.10
2018-10-15T11:35:16.472Z,24.96
2018-10-15T11:37:09.465Z,25.08
2018-10-15T11:38:09.533Z,25.10
2018-10-15T11:40:02.540Z,25.17
2018-10-15T11:41:02.597Z,25.08
2018-10-15T11:42:55.592Z,25.07
2018-10-15T11:43:55.781Z,25.08
2018-10-15T11:45:48.658Z,25.03
2018-10-15T11:46:48.729Z,25.03
2018-10-15T11:48:41.718Z,25.22
2018-10-15T11:49:41.805Z,25.26
2018-10-15T11:51:34.858Z,25.35
2018-10-15T11:52:34.845Z,25.33
2018-10-15T11:54:27.850Z,25.26
2018-10-15T11:55:27.908Z,25.17
2018-10-15T11:57:20.916Z,25.04
2018-10-15T11:58:20.977Z,24.93
2018-10-15T12:00:13.977Z,24.80
2018-10-15T12:01:14.038Z,24.70
2018-10-15T12:03:07.037Z,24.58
2018-10-15T12:04:07.102Z,24.53
2018-10-15T12:06:00.617Z,24.73
2018-10-15T12:07:00.673Z,24.92
2018-10-15T12:08:53.674Z,25.13
2018-10-15T12:09:53.743Z,25.26
2018-10-15T12:11:46.753Z,25.31
2018-10-15T12:12:46.803Z,25.41
2018-10-15T12:14:39.797Z,25.53
2018-10-15T12:15:39.863Z,25.55
2018-10-15T12:17:32.866Z,25.65
2018-10-15T12:18:32.923Z,25.73
2018-10-15T12:20:25.931Z,25.95
2018-10-15T12:21:25.980Z,25.98
2018-10-15T12:23:18.986Z,25.87
2018-10-15T12:24:19.048Z,25.87
2018-10-15T12:26:12.049Z,25.90
2018-10-15T12:27:12.108Z,25.96
2018-10-15T12:29:05.105Z,26.09
2018-10-15T12:30:05.173Z,26.26
2018-10-15T12:31:58.176Z,26.22
2018-10-15T12:32:58.232Z,26.31
2018-10-15T12:34:51.227Z,26.18
2018-10-15T12:35:51.294Z,26.22
2018-10-15T12:37:44.304Z,26.25
2018-10-15T12:38:44.364Z,26.23
2018-10-15T12:40:37.363Z,26.28
2018-10-15T12:41:37.434Z,26.06
2018-10-15T12:43:30.432Z,26.19
2018-10-15T12:44:30.490Z,26.03
2018-10-15T12:46:23.495Z,26.21
2018-10-15T12:47:23.609Z,26.18
2018-10-15T12:49:16.556Z,26.06
2018-10-15T12:50:16.619Z,26.05
2018-10-15T12:52:09.622Z,26.07
2018-10-15T12:53:09.681Z,26.07
2018-10-15T12:55:02.678Z,26.03
2018-10-15T12:56:02.744Z,26.09
2018-10-15T12:57:55.748Z,26.18
2018-10-15T12:58:55.807Z,26.10
2018-10-15T13:00:48.823Z,26.09
2018-10-15T13:01:48.896Z,26.18
2018-10-15T13:03:41.897Z,26.07
2018-10-15T13:04:41.953Z,26.13
2018-10-15T13:06:34.955Z,26.10
2018-10-15T13:07:35.014Z,26.05
2018-10-15T13:09:28.022Z,26.03
2018-10-15T13:10:28.091Z,26.05
2018-10-15T13:12:21.094Z,25.98
2018-10-15T13:13:21.152Z,25.99
2018-10-15T13:15:14.148Z,25.98
2018-10-15T13:16:14.225Z,25.98
2018-10-15T13:18:07.228Z,25.81
2018-10-15T13:19:07.328Z,25.69
2018-10-15T13:21:00.304Z,25.72
2018-10-15T13:22:00.365Z,25.84
2018-10-15T13:23:53.377Z,25.90
2018-10-15T13:24:53.431Z,25.96
2018-10-15T13:26:46.436Z,26.06
2018-10-15T13:27:46.500Z,26.00
2018-10-15T13:29:39.504Z,25.91
2018-10-15T13:30:39.583Z,25.99
2018-10-15T13:32:32.565Z,26.03
2018-10-15T13:33:32.627Z,26.10
2018-10-15T13:35:25.628Z,26.22
2018-10-15T13:36:25.689Z,26.25
2018-10-15T13:38:18.693Z,26.19
2018-10-15T13:39:18.751Z,26.19
2018-10-15T13:41:11.745Z,26.06
2018-10-15T13:42:11.813Z,26.10
2018-10-15T13:44:04.857Z,26.06
2018-10-15T13:45:04.917Z,26.05
2018-10-15T13:46:57.917Z,26.03
2018-10-15T13:47:57.984Z,26.00
2018-10-15T13:49:50.984Z,26.06
2018-10-15T13:50:51.045Z,26.06
2018-10-15T13:52:44.049Z,26.05
2018-10-15T13:53:44.108Z,26.09
2018-10-15T13:55:37.109Z,26.06
2018-10-15T13:56:37.168Z,26.09
2018-10-15T13:58:30.170Z,26.03
2018-10-15T13:59:30.227Z,26.23
2018-10-15T14:01:23.221Z,26.05
2018-10-15T14:02:23.288Z,26.03
2018-10-15T14:04:16.301Z,26.02
2018-10-15T14:05:16.447Z,25.91
2018-10-15T14:07:09.359Z,25.69
2018-10-15T14:08:09.426Z,25.66
2018-10-15T14:10:02.427Z,25.63
2018-10-15T14:11:02.492Z,25.68
2018-10-15T14:12:55.488Z,25.53
2018-10-15T14:13:55.548Z,25.58
2018-10-15T14:15:48.553Z,25.54
2018-10-15T14:16:48.615Z,25.46
2018-10-15T14:18:41.616Z,25.29
2018-10-15T14:19:41.673Z,25.23
2018-10-15T14:21:34.669Z,25.13
2018-10-15T14:22:34.733Z,25.10
2018-10-15T14:24:27.737Z,25.04
2018-10-15T14:25:27.800Z,25.03
2018-10-15T14:27:20.791Z,25.06
2018-10-15T14:28:20.860Z,24.95
2018-10-15T14:30:13.858Z,24.96
2018-10-15T14:31:13.917Z,24.88
2018-10-15T14:33:06.920Z,24.78
2018-10-15T14:34:06.982Z,24.76
2018-10-15T14:35:59.988Z,24.78
2018-10-15T14:37:00.049Z,24.77
2018-10-15T14:38:53.051Z,24.78
2018-10-15T14:39:53.111Z,24.85
2018-10-15T14:41:46.107Z,24.89
2018-10-15T14:42:46.171Z,24.93
2018-10-15T14:44:39.177Z,24.89
2018-10-15T14:45:39.231Z,24.93
2018-10-15T14:47:32.288Z,24.98
2018-10-15T14:48:32.304Z,24.81
2018-10-15T14:50:25.298Z,24.88
2018-10-15T14:51:25.354Z,24.85
2018-10-15T14:53:18.350Z,24.84
2018-10-15T14:54:18.414Z,24.80
2018-10-15T14:56:11.426Z,24.76
2018-10-15T14:57:11.485Z,24.78
2018-10-15T14:59:04.509Z,24.68
2018-10-15T15:00:04.546Z,24.73
2018-10-15T15:01:57.547Z,24.66
2018-10-15T15:02:57.607Z,24.60
2018-10-15T15:04:50.607Z,24.55
2018-10-15T15:05:50.666Z,24.65
2018-10-15T15:07:43.675Z,24.54
2018-10-15T15:08:43.726Z,24.47
2018-10-15T15:10:36.735Z,24.50
2018-10-15T15:11:36.792Z,24.40
2018-10-15T15:13:29.801Z,24.36
2018-10-15T15:14:29.853Z,24.32
2018-10-15T15:16:22.860Z,24.24
2018-10-15T15:17:22.914Z,24.28
2018-10-15T15:19:15.917Z,24.20
2018-10-15T15:20:16.201Z,24.17
2018-10-15T15:22:08.987Z,24.13
2018-10-15T15:23:09.045Z,24.10
2018-10-15T15:25:02.040Z,24.03
2018-10-15T15:26:02.107Z,23.98
2018-10-15T15:27:55.178Z,23.83
2018-10-15T15:28:55.166Z,23.81
2018-10-15T15:30:48.168Z,23.76
2018-10-15T15:31:48.229Z,23.66
2018-10-15T15:33:41.225Z,23.65
2018-10-15T15:34:41.290Z,23.59
2018-10-15T15:36:34.291Z,23.58
2018-10-15T15:37:34.570Z,23.56
2018-10-15T15:39:27.361Z,23.47
2018-10-15T15:40:27.428Z,23.44
2018-10-15T15:42:20.427Z,23.28
2018-10-15T15:43:20.487Z,23.37
2018-10-15T15:45:13.527Z,23.32
2018-10-15T15:46:13.546Z,23.20
2018-10-15T15:48:06.546Z,23.18
2018-10-15T15:49:06.604Z,23.10
2018-10-15T15:50:59.656Z,23.18
2018-10-15T15:51:59.670Z,23.18
2018-10-15T15:53:52.682Z,23.21
2018-10-15T15:54:52.728Z,23.02
2018-10-15T15:56:45.733Z,22.96
2018-10-15T15:57:45.788Z,22.96
2018-10-15T15:59:38.789Z,22.88
2018-10-15T16:00:38.847Z,22.87
2018-10-15T16:02:31.848Z,22.75
2018-10-15T16:03:31.904Z,22.76
2018-10-15T16:05:25.416Z,22.70
2018-10-15T16:06:25.475Z,22.68
2018-10-15T16:08:18.485Z,22.55
2018-10-15T16:09:18.544Z,22.57
2018-10-15T16:11:11.613Z,22.44
2018-10-15T16:12:11.607Z,22.44
2018-10-15T16:14:04.604Z,22.51
2018-10-15T16:15:04.670Z,22.41
2018-10-15T16:16:57.670Z,22.36
2018-10-15T16:17:57.748Z,22.28
2018-10-15T16:19:50.724Z,22.26
2018-10-15T16:20:50.788Z,22.23
2018-10-15T16:22:43.788Z,22.17
2018-10-15T16:23:43.845Z,22.26
2018-10-15T16:25:36.847Z,22.10
2018-10-15T16:26:36.914Z,21.98
2018-10-15T16:28:29.918Z,22.00
2018-10-15T16:29:29.977Z,22.02
2018-10-15T16:31:22.983Z,21.85
2018-10-15T16:32:23.044Z,21.88
2018-10-15T16:34:16.051Z,21.72
2018-10-15T16:35:16.112Z,21.82
2018-10-15T16:37:09.110Z,21.62
2018-10-15T16:38:09.168Z,21.58
2018-10-15T16:40:02.161Z,21.51
2018-10-15T16:41:02.225Z,21.46
2018-10-15T16:42:55.225Z,21.48
2018-10-15T16:43:55.283Z,21.45
2018-10-15T16:45:48.290Z,21.37
2018-10-15T16:46:48.342Z,21.29
2018-10-15T16:48:41.343Z,21.30
2018-10-15T16:49:41.400Z,21.27
2018-10-15T16:51:34.415Z,21.29
2018-10-15T16:52:34.454Z,21.30
2018-10-15T16:54:27.457Z,21.22
2018-10-15T16:55:27.516Z,21.17
2018-10-15T16:57:20.536Z,21.03
2018-10-15T16:58:20.582Z,21.05
2018-10-15T17:00:13.578Z,21.02
2018-10-15T17:01:13.637Z,21.02
2018-10-15T17:03:06.635Z,20.87
2018-10-15T17:04:06.691Z,20.84
2018-10-15T17:06:00.199Z,20.87
2018-10-15T17:07:00.259Z,20.69
2018-10-15T17:08:53.262Z,20.80
2018-10-15T17:09:53.317Z,20.82
2018-10-15T17:11:46.309Z,20.67
2018-10-15T17:12:46.373Z,20.65
2018-10-15T17:14:39.374Z,20.70
2018-10-15T17:15:39.430Z,20.74
2018-10-15T17:17:32.423Z,20.72
2018-10-15T17:18:32.487Z,20.69
2018-10-15T17:20:25.489Z,20.66
2018-10-15T17:21:25.545Z,20.58
2018-10-15T17:23:18.555Z,20.59
2018-10-15T17:24:18.604Z,20.60
2018-10-15T17:26:11.595Z,20.55
2018-10-15T17:27:11.661Z,20.50
2018-10-15T17:29:04.662Z,20.40
2018-10-15T17:30:04.715Z,20.34
2018-10-15T17:31:57.707Z,20.37
2018-10-15T17:32:57.772Z,20.29
2018-10-15T17:34:50.788Z,20.36
2018-10-15T17:35:50.828Z,20.24
2018-10-15T17:37:43.905Z,20.24
2018-10-15T17:38:44.180Z,20.24
2018-10-15T17:40:36.897Z,20.26
2018-10-15T17:41:36.940Z,20.19
2018-10-15T17:43:30.021Z,20.22
2018-10-15T17:44:29.995Z,20.18
2018-10-15T17:46:22.994Z,20.11
2018-10-15T17:47:23.054Z,20.06
2018-10-15T17:49:16.051Z,20.16
2018-10-15T17:50:16.109Z,20.07
2018-10-15T17:52:09.142Z,20.00
2018-10-15T17:53:09.166Z,19.96
2018-10-15T17:55:02.169Z,19.92
2018-10-15T17:56:02.226Z,19.79
2018-10-15T17:57:55.243Z,19.88
2018-10-15T17:58:55.347Z,19.89
2018-10-15T18:00:48.282Z,19.89
2018-10-15T18:01:48.350Z,19.88
2018-10-15T18:03:41.333Z,19.85
2018-10-15T18:04:41.400Z,19.74
2018-10-15T18:06:34.409Z,19.85
2018-10-15T18:07:34.453Z,19.73
2018-10-15T18:09:27.460Z,19.76
2018-10-15T18:10:27.515Z,19.73
2018-10-15T18:12:20.569Z,19.74
2018-10-15T18:13:20.565Z,19.66
2018-10-15T18:15:13.613Z,19.55
2018-10-15T18:16:13.619Z,19.55
2018-10-15T18:18:06.620Z,19.67
2018-10-15T18:19:06.681Z,19.58
2018-10-15T18:20:59.680Z,19.64
2018-10-15T18:21:59.735Z,19.59
2018-10-15T18:23:52.728Z,19.49
2018-10-15T18:24:52.791Z,19.44
2018-10-15T18:26:45.796Z,19.39
2018-10-15T18:27:45.846Z,19.37
2018-10-15T18:29:38.847Z,19.26
2018-10-15T18:30:38.909Z,19.21
2018-10-15T18:32:31.912Z,19.26
2018-10-15T18:33:31.969Z,19.07